createdAt,value
2017-04-08T20:05:40.712Z,12.32
2017-04-08T20:06:41.232Z,8.58
2017-04-08T20:07:41.072Z,8.69
2017-04-08T20:08:40.888Z,8.49
2017-04-08T20:09:40.688Z,8.23
2017-04-08T20:10:40.476Z,8.89
2017-04-08T20:11:40.280Z,7.31
2017-04-08T20:12:40.076Z,8.13
2017-04-08T20:13:39.868Z,8.61
2017-04-08T20:14:39.628Z,7.11
2017-04-08T20:15:40.296Z,9.39
2017-04-08T20:16:40.052Z,8.84
2017-04-08T20:17:39.800Z,8.34
2017-04-08T20:18:39.568Z,9.03
2017-04-08T20:19:40.065Z,8.11
2017-04-08T20:20:39.876Z,9.70
2017-04-08T20:21:39.620Z,6.46
2017-04-08T20:22:39.352Z,7.47
2017-04-08T20:23:39.112Z,7.53
2017-04-08T20:24:39.088Z,8.16
2017-04-08T20:25:38.842Z,9.21
2017-04-08T20:26:38.551Z,10.30
2017-04-08T20:27:38.324Z,8.37
2017-04-08T20:28:38.244Z,6.97
2017-04-08T20:29:37.999Z,7.11
2017-04-08T20:30:38.515Z,10.76
2017-04-08T20:31:39.016Z,6.64
2017-04-08T20:32:38.767Z,9.01
2017-04-08T20:33:38.528Z,9.36
2017-04-08T20:34:38.299Z,7.67
2017-04-08T20:35:38.028Z,9.09
2017-04-08T20:36:37.796Z,7.25
2017-04-08T20:37:37.568Z,8.06
2017-04-08T20:38:37.367Z,10.70
2017-04-08T20:39:37.160Z,6.06
2017-04-08T20:40:36.937Z,6.69
2017-04-08T20:41:36.699Z,6.71
2017-04-08T20:42:36.475Z,7.89
2017-04-08T20:43:36.279Z,7.76
2017-04-08T20:44:36.047Z,7.21
2017-04-08T20:45:36.547Z,8.59
2017-04-08T20:46:36.287Z,6.13
2017-04-08T20:47:36.027Z,7.79
2017-04-08T20:48:35.777Z,6.51
2017-04-08T20:49:36.276Z,5.90
2017-04-08T20:50:36.063Z,7.11
2017-04-08T20:51:35.832Z,7.11
2017-04-08T20:52:35.636Z,8.79
2017-04-08T20:53:35.400Z,8.80
2017-04-08T20:54:35.148Z,8.71
2017-04-08T20:55:34.899Z,9.04
2017-04-08T20:56:35.376Z,6.50
2017-04-08T20:57:35.164Z,9.56
2017-04-08T20:58:34.935Z,6.81
2017-04-08T20:59:35.439Z,7.19
2017-04-08T21:00:35.164Z,6.23
2017-04-08T21:01:34.915Z,6.06
2017-04-08T21:02:34.676Z,8.91
2017-04-08T21:03:34.460Z,7.47
2017-04-08T21:04:34.267Z,6.69
2017-04-08T21:05:34.039Z,8.97
2017-04-08T21:06:33.775Z,7.20
2017-04-08T21:07:33.531Z,8.84
2017-04-08T21:08:33.293Z,6.80
2017-04-08T21:09:33.083Z,6.89
2017-04-08T21:10:32.831Z,6.54
2017-04-08T21:11:32.780Z,7.04
2017-04-08T21:12:32.520Z,6.99
2017-04-08T21:13:32.279Z,5.81
2017-04-08T21:14:32.031Z,4.94
2017-04-08T21:15:31.775Z,6.83
2017-04-08T21:16:31.519Z,5.37
2017-04-08T21:17:31.252Z,7.64
2017-04-08T21:18:31.747Z,8.94
2017-04-08T21:19:31.484Z,4.97
2017-04-08T21:20:31.218Z,5.27
2017-04-08T21:21:30.959Z,8.06
2017-04-08T21:22:30.703Z,6.41
2017-04-08T21:23:30.435Z,6.16
2017-04-08T21:24:30.679Z,6.40
2017-04-08T21:25:30.647Z,5.83
2017-04-08T21:26:30.420Z,4.74
2017-04-08T21:27:30.255Z,5.76
2017-04-08T21:28:29.976Z,7.46
2017-04-08T21:29:29.727Z,6.01
2017-04-08T21:30:29.435Z,4.14
2017-04-08T21:31:32.239Z,6.40
2017-04-08T21:32:32.183Z,5.26
2017-04-08T21:33:37.948Z,5.94
2017-04-08T21:34:44.183Z,6.14
2017-04-08T21:35:50.003Z,5.96
2017-04-08T21:36:55.659Z,7.80
2017-04-08T21:38:01.004Z,3.97
2017-04-08T21:39:07.235Z,4.24
2017-04-08T21:40:14.651Z,3.27
2017-04-08T21:41:20.835Z,5.24
2017-04-08T21:42:26.343Z,5.91
2017-04-08T21:43:31.835Z,5.10
2017-04-08T21:44:37.347Z,5.17
2017-04-08T21:45:42.791Z,4.34
2017-04-08T21:46:48.240Z,5.03
2017-04-08T21:47:55.515Z,5.91
2017-04-08T21:49:01.854Z,8.26
2017-04-08T21:50:02.067Z,6.13
2017-04-08T21:51:01.839Z,6.01
2017-04-08T21:52:01.599Z,5.36
2017-04-08T21:53:01.452Z,4.67
2017-04-08T21:54:01.203Z,5.36
2017-04-08T21:55:01.007Z,3.93
2017-04-08T21:56:00.779Z,4.49
2017-04-08T21:57:00.595Z,4.26
2017-04-08T21:58:01.075Z,4.20
2017-04-08T21:59:00.814Z,5.14
2017-04-08T22:00:00.534Z,4.24
2017-04-08T22:01:00.351Z,4.56
2017-04-08T22:02:00.150Z,4.89
2017-04-08T22:02:59.887Z,4.84
2017-04-08T22:03:59.594Z,5.09
2017-04-08T22:04:59.398Z,5.09
2017-04-08T22:05:59.891Z,7.60
2017-04-08T22:06:59.806Z,4.47
2017-04-08T22:07:59.558Z,4.53
2017-04-08T22:08:59.347Z,6.16
2017-04-08T22:09:59.138Z,5.81
2017-04-08T22:10:59.698Z,5.96
2017-04-08T22:11:59.422Z,4.47
2017-04-08T22:12:59.146Z,5.10
2017-04-08T22:13:59.654Z,8.50
2017-04-08T22:14:59.394Z,5.30
2017-04-08T22:15:59.206Z,4.68
2017-04-08T22:16:58.974Z,5.21
2017-04-08T22:17:58.734Z,4.88
2017-04-08T22:18:58.507Z,4.80
2017-04-08T22:19:58.262Z,5.20
2017-04-08T22:20:58.002Z,4.60
2017-04-08T22:21:57.750Z,5.04
2017-04-08T22:22:57.534Z,5.09
2017-04-08T22:23:57.324Z,6.30
2017-04-08T22:24:57.050Z,5.04
2017-04-08T22:25:56.796Z,2.91
2017-04-08T22:26:56.571Z,7.44
2017-04-08T22:27:56.306Z,4.23
2017-04-08T22:28:56.062Z,4.00
2017-04-08T22:29:55.839Z,4.46
2017-04-08T22:30:55.650Z,4.46
2017-04-08T22:31:55.394Z,3.77
2017-04-08T22:32:55.895Z,4.77
2017-04-08T22:33:56.451Z,3.99
2017-04-08T22:34:56.233Z,5.13
2017-04-08T22:35:56.714Z,3.89
2017-04-08T22:36:56.983Z,4.34
2017-04-08T22:37:56.722Z,5.14
2017-04-08T22:38:56.522Z,3.87
2017-04-08T22:39:56.395Z,2.90
2017-04-08T22:40:56.919Z,3.94
2017-04-08T22:41:56.734Z,3.81
2017-04-08T22:42:56.583Z,4.77
2017-04-08T22:43:57.063Z,5.83
2017-04-08T22:44:56.810Z,3.89
2017-04-08T22:45:57.324Z,3.64
2017-04-08T22:46:57.850Z,5.54
2017-04-08T22:47:57.654Z,4.71
2017-04-08T22:48:58.143Z,3.64
2017-04-08T22:49:58.227Z,3.20
2017-04-08T22:50:57.882Z,3.81
2017-04-08T22:51:57.615Z,4.83
2017-04-08T22:52:57.375Z,4.27
2017-04-08T22:53:57.078Z,3.01
2017-04-08T22:54:57.558Z,4.30
2017-04-08T22:55:57.346Z,5.61
2017-04-08T22:56:57.082Z,4.61
2017-04-08T22:57:56.866Z,4.13
2017-04-08T22:58:56.583Z,3.63
2017-04-08T22:59:57.082Z,3.99
2017-04-08T23:00:56.894Z,3.40
2017-04-08T23:01:56.710Z,5.93
2017-04-08T23:02:57.254Z,3.83
2017-04-08T23:03:57.006Z,5.54
2017-04-08T23:04:56.754Z,2.83
2017-04-08T23:05:56.501Z,4.47
2017-04-08T23:06:56.237Z,4.77
2017-04-08T23:07:56.730Z,3.67
2017-04-08T23:08:56.470Z,3.31
2017-04-08T23:09:56.229Z,3.99
2017-04-08T23:10:55.970Z,2.87
2017-04-08T23:11:55.703Z,3.56
2017-04-08T23:12:55.498Z,3.31
2017-04-08T23:13:55.267Z,3.11
2017-04-08T23:14:55.766Z,5.17
2017-04-08T23:15:55.466Z,3.83
2017-04-08T23:16:55.966Z,5.64
2017-04-08T23:17:55.701Z,3.53
2017-04-08T23:18:55.502Z,4.07
2017-04-08T23:19:55.241Z,3.29
2017-04-08T23:20:54.990Z,4.69
2017-04-08T23:21:55.457Z,3.13
2017-04-08T23:22:55.183Z,3.34
2017-04-08T23:23:54.957Z,3.23
2017-04-08T23:24:55.434Z,2.49
2017-04-08T23:25:55.158Z,3.16
2017-04-08T23:26:54.857Z,2.71
2017-04-08T23:27:54.586Z,4.21
2017-04-08T23:28:54.377Z,3.54
2017-04-08T23:29:54.109Z,3.17
2017-04-08T23:30:53.825Z,3.47
2017-04-08T23:31:53.562Z,2.71
2017-04-08T23:32:53.305Z,2.94
2017-04-08T23:33:53.093Z,4.60
2017-04-08T23:34:57.638Z,5.14
2017-04-08T23:35:57.692Z,4.60
2017-04-08T23:36:57.413Z,3.03
2017-04-08T23:37:57.122Z,3.76
2017-04-08T23:38:56.922Z,3.71
2017-04-08T23:39:56.626Z,3.24
2017-04-08T23:40:56.413Z,1.89
2017-04-08T23:41:56.174Z,2.54
2017-04-08T23:42:55.922Z,2.99
2017-04-08T23:43:55.669Z,3.53
2017-04-08T23:44:55.405Z,4.17
2017-04-08T23:45:55.153Z,3.07
2017-04-08T23:46:55.621Z,4.53
2017-04-08T23:47:55.359Z,2.61
2017-04-08T23:48:55.094Z,3.01
2017-04-08T23:49:54.829Z,4.10
2017-04-08T23:50:54.601Z,3.53
2017-04-08T23:51:55.122Z,3.16
2017-04-08T23:52:54.861Z,3.19
2017-04-08T23:53:54.653Z,4.74
2017-04-08T23:54:54.409Z,4.41
2017-04-08T23:55:54.153Z,3.49
2017-04-08T23:56:53.905Z,2.86
2017-04-08T23:57:53.678Z,2.09
2017-04-08T23:58:53.401Z,4.56
2017-04-08T23:59:53.973Z,2.26
